sensor_id;sensor_type;location;lat;lon;timestamp;P1;durP1;ratioP1;P2;durP2;ratioP2
12038;SDS011;6080;48.818;9.526;2023-02-18T04:01:28;21.13;;;20.23;;
12038;SDS011;6080;48.818;9.526;2023-02-18T04:03:54;21.50;;;20.47;;
12038;SDS011;6080;48.818;9.526;2023-02-18T04:06:20;22.40;;;21.33;;
12038;SDS011;6080;48.818;9.526;2023-02-18T04:08:47;23.33;;;22.33;;
12038;SDS011;6080;48.818;9.526;2023-02-18T04:11:12;23.17;;;22.07;;
12038;SDS011;6080;48.818;9.526;2023-02-18T04:13:39;22.70;;;21.67;;
12038;SDS011;6080;48.818;9.526;2023-02-18T04:16:05;21.90;;;20.90;;
12038;SDS011;6080;48.818;9.526;2023-02-18T04:18:31;20.70;;;19.70;;
12038;SDS011;6080;48.818;9.526;2023-02-18T04:20:56;20.77;;;19.77;;
12038;SDS011;6080;48.818;9.526;2023-02-18T04:23:22;20.00;;;19.10;;
12038;SDS011;6080;48.818;9.526;2023-02-18T04:25:48;21.63;;;20.53;;
12038;SDS011;6080;48.818;9.526;2023-02-18T04:28:14;18.97;;;18.03;;
12038;SDS011;6080;48.818;9.526;2023-02-18T04:30:43;16.73;;;16.03;;
12038;SDS011;6080;48.818;9.526;2023-02-18T04:33:10;18.80;;;17.83;;
12038;SDS011;6080;48.818;9.526;2023-02-18T04:35:36;21.80;;;20.77;;
12038;SDS011;6080;48.818;9.526;2023-02-18T04:38:04;19.60;;;18.73;;
12038;SDS011;6080;48.818;9.526;2023-02-18T04:40:30;17.77;;;16.93;;
12038;SDS011;6080;48.818;9.526;2023-02-18T04:42:56;15.17;;;14.50;;
12038;SDS011;6080;48.818;9.526;2023-02-18T04:45:23;13.03;;;12.43;;
12038;SDS011;6080;48.818;9.526;2023-02-18T04:47:50;11.93;;;11.43;;
12038;SDS011;6080;48.818;9.526;2023-02-18T04:50:15;13.60;;;13.00;;
12038;SDS011;6080;48.818;9.526;2023-02-18T04:52:42;14.83;;;14.00;;
12038;SDS011;6080;48.818;9.526;2023-02-18T04:55:08;14.67;;;14.03;;
12038;SDS011;6080;48.818;9.526;2023-02-18T04:57:34;16.20;;;15.40;;
12038;SDS011;6080;48.818;9.526;2023-02-18T05:00:00;19.60;;;18.53;;
12038;SDS011;6080;48.818;9.526;2023-02-18T05:02:27;19.00;;;18.00;;
12038;SDS011;6080;48.818;9.526;2023-02-18T05:04:54;19.27;;;18.40;;
12038;SDS011;6080;48.818;9.526;2023-02-18T05:07:19;18.20;;;17.40;;
12038;SDS011;6080;48.818;9.526;2023-02-18T05:09:45;18.80;;;17.80;;
12038;SDS011;6080;48.818;9.526;2023-02-18T05:12:11;17.37;;;16.63;;
12038;SDS011;6080;48.818;9.526;2023-02-18T05:14:37;17.00;;;16.27;;
12038;SDS011;6080;48.818;9.526;2023-02-18T05:17:03;16.17;;;15.47;;
12038;SDS011;6080;48.818;9.526;2023-02-18T05:19:28;15.53;;;14.87;;
12038;SDS011;6080;48.818;9.526;2023-02-18T05:21:54;14.63;;;13.83;;
12038;SDS011;6080;48.818;9.526;2023-02-18T05:24:20;12.23;;;11.67;;
12038;SDS011;6080;48.818;9.526;2023-02-18T05:26:49;11.13;;;10.63;;
12038;SDS011;6080;48.818;9.526;2023-02-18T05:29:14;11.30;;;10.80;;
12038;SDS011;6080;48.818;9.526;2023-02-18T05:31:40;10.90;;;10.40;;
12038;SDS011;6080;48.818;9.526;2023-02-18T05:34:06;9.47;;;9.03;;
12038;SDS011;6080;48.818;9.526;2023-02-18T05:36:32;8.30;;;8.00;;
12038;SDS011;6080;48.818;9.526;2023-02-18T05:38:58;8.77;;;8.43;;
12038;SDS011;6080;48.818;9.526;2023-02-18T05:41:24;9.00;;;8.63;;
12038;SDS011;6080;48.818;9.526;2023-02-18T05:43:49;10.50;;;10.07;;
12038;SDS011;6080;48.818;9.526;2023-02-18T05:46:34;9.73;;;9.37;;
12038;SDS011;6080;48.818;9.526;2023-02-18T05:48:59;11.80;;;11.27;;
12038;SDS011;6080;48.818;9.526;2023-02-18T05:51:25;12.30;;;11.80;;
12038;SDS011;6080;48.818;9.526;2023-02-18T05:53:51;13.23;;;12.67;;
12038;SDS011;6080;48.818;9.526;2023-02-18T05:56:17;12.13;;;11.57;;
12038;SDS011;6080;48.818;9.526;2023-02-18T05:58:43;12.10;;;11.40;;
12038;SDS011;6080;48.818;9.526;2023-02-18T06:01:09;10.30;;;9.80;;
12038;SDS011;6080;48.818;9.526;2023-02-18T06:03:35;12.13;;;11.57;;
12038;SDS011;6080;48.818;9.526;2023-02-18T06:06:01;11.20;;;10.70;;
12038;SDS011;6080;48.818;9.526;2023-02-18T06:08:26;19.20;;;18.30;;
12038;SDS011;6080;48.818;9.526;2023-02-18T06:10:53;10.93;;;10.50;;
12038;SDS011;6080;48.818;9.526;2023-02-18T06:13:19;10.97;;;10.47;;
12038;SDS011;6080;48.818;9.526;2023-02-18T06:15:45;9.73;;;9.33;;
12038;SDS011;6080;48.818;9.526;2023-02-18T06:18:10;7.90;;;7.60;;
12038;SDS011;6080;48.818;9.526;2023-02-18T06:20:37;6.43;;;6.23;;
12038;SDS011;6080;48.818;9.526;2023-02-18T06:23:04;5.27;;;5.07;;
12038;SDS011;6080;48.818;9.526;2023-02-18T06:25:30;5.10;;;4.90;;
12038;SDS011;6080;48.818;9.526;2023-02-18T06:27:55;5.40;;;5.10;;
12038;SDS011;6080;48.818;9.526;2023-02-18T06:30:21;5.37;;;5.17;;
12038;SDS011;6080;48.818;9.526;2023-02-18T06:32:47;5.73;;;5.53;;
12038;SDS011;6080;48.818;9.526;2023-02-18T06:35:13;7.47;;;7.07;;
12038;SDS011;6080;48.818;9.526;2023-02-18T06:37:38;6.13;;;5.93;;
12038;SDS011;6080;48.818;9.526;2023-02-18T06:40:04;7.37;;;7.07;;
12038;SDS011;6080;48.818;9.526;2023-02-18T06:42:31;6.93;;;6.53;;
12038;SDS011;6080;48.818;9.526;2023-02-18T06:44:57;7.50;;;7.20;;
12038;SDS011;6080;48.818;9.526;2023-02-18T06:47:22;7.30;;;6.90;;
12038;SDS011;6080;48.818;9.526;2023-02-18T06:49:48;7.43;;;7.13;;
12038;SDS011;6080;48.818;9.526;2023-02-18T06:52:14;8.33;;;7.97;;
12038;SDS011;6080;48.818;9.526;2023-02-18T06:54:40;9.27;;;8.53;;
12038;SDS011;6080;48.818;9.526;2023-02-18T06:57:05;8.87;;;8.53;;
12038;SDS011;6080;48.818;9.526;2023-02-18T06:59:32;11.40;;;10.93;;
12038;SDS011;6080;48.818;9.526;2023-02-18T07:01:57;11.30;;;10.80;;
12038;SDS011;6080;48.818;9.526;2023-02-18T07:04:23;12.67;;;12.03;;
12038;SDS011;6080;48.818;9.526;2023-02-18T07:06:49;15.10;;;14.47;;
12038;SDS011;6080;48.818;9.526;2023-02-18T07:09:15;16.33;;;15.60;;
12038;SDS011;6080;48.818;9.526;2023-02-18T07:11:41;17.23;;;16.50;;
12038;SDS011;6080;48.818;9.526;2023-02-18T07:14:06;17.90;;;17.10;;
12038;SDS011;6080;48.818;9.526;2023-02-18T07:16:32;18.10;;;17.20;;
12038;SDS011;6080;48.818;9.526;2023-02-18T07:18:58;18.67;;;17.77;;
12038;SDS011;6080;48.818;9.526;2023-02-18T07:21:24;19.50;;;18.60;;
12038;SDS011;6080;48.818;9.526;2023-02-18T07:23:50;19.50;;;18.70;;
12038;SDS011;6080;48.818;9.526;2023-02-18T07:26:15;20.97;;;19.97;;
12038;SDS011;6080;48.818;9.526;2023-02-18T07:28:41;20.63;;;19.63;;
12038;SDS011;6080;48.818;9.526;2023-02-18T07:31:07;20.30;;;19.40;;
12038;SDS011;6080;48.818;9.526;2023-02-18T07:33:33;20.67;;;19.77;;
12038;SDS011;6080;48.818;9.526;2023-02-18T07:35:59;21.67;;;20.57;;
12038;SDS011;6080;48.818;9.526;2023-02-18T07:38:26;20.87;;;19.87;;
12038;SDS011;6080;48.818;9.526;2023-02-18T07:40:53;22.37;;;21.27;;
12038;SDS011;6080;48.818;9.526;2023-02-18T07:43:19;21.63;;;20.40;;
12038;SDS011;6080;48.818;9.526;2023-02-18T07:45:45;22.13;;;21.03;;
12038;SDS011;6080;48.818;9.526;2023-02-18T07:48:11;24.23;;;23.10;;
12038;SDS011;6080;48.818;9.526;2023-02-18T07:50:38;37.43;;;35.63;;
12038;SDS011;6080;48.818;9.526;2023-02-18T07:53:05;40.27;;;38.30;;
12038;SDS011;6080;48.818;9.526;2023-02-18T07:55:31;42.47;;;40.47;;
12038;SDS011;6080;48.818;9.526;2023-02-18T07:58:16;43.30;;;41.20;;
12038;SDS011;6080;48.818;9.526;2023-02-18T08:00:50;41.97;;;39.87;;
12038;SDS011;6080;48.818;9.526;2023-02-18T08:03:17;45.30;;;43.10;;
12038;SDS011;6080;48.818;9.526;2023-02-18T08:05:46;41.60;;;39.57;;
12038;SDS011;6080;48.818;9.526;2023-02-18T08:08:14;37.13;;;35.37;;
12038;SDS011;6080;48.818;9.526;2023-02-18T08:10:41;28.57;;;27.27;;
12038;SDS011;6080;48.818;9.526;2023-02-18T08:13:08;22.33;;;21.27;;
12038;SDS011;6080;48.818;9.526;2023-02-18T08:15:34;9.23;;;8.83;;
12038;SDS011;6080;48.818;9.526;2023-02-18T08:18:00;7.80;;;7.40;;
12038;SDS011;6080;48.818;9.526;2023-02-18T08:20:26;9.53;;;8.93;;
12038;SDS011;6080;48.818;9.526;2023-02-18T08:22:52;21.73;;;20.30;;
12038;SDS011;6080;48.818;9.526;2023-02-18T08:25:18;5.97;;;5.77;;
12038;SDS011;6080;48.818;9.526;2023-02-18T08:27:44;5.40;;;5.10;;
12038;SDS011;6080;48.818;9.526;2023-02-18T08:30:10;6.67;;;6.37;;
12038;SDS011;6080;48.818;9.526;2023-02-18T08:32:36;5.63;;;5.33;;
12038;SDS011;6080;48.818;9.526;2023-02-18T08:35:02;5.67;;;5.47;;
12038;SDS011;6080;48.818;9.526;2023-02-18T08:37:28;7.43;;;6.93;;
12038;SDS011;6080;48.818;9.526;2023-02-18T08:39:54;10.80;;;10.23;;
12038;SDS011;6080;48.818;9.526;2023-02-18T08:42:20;8.50;;;8.13;;
12038;SDS011;6080;48.818;9.526;2023-02-18T08:44:46;6.83;;;6.53;;
12038;SDS011;6080;48.818;9.526;2023-02-18T08:47:12;5.13;;;4.83;;
12038;SDS011;6080;48.818;9.526;2023-02-18T08:49:38;3.93;;;3.73;;
12038;SDS011;6080;48.818;9.526;2023-02-18T08:52:03;9.07;;;8.10;;
12038;SDS011;6080;48.818;9.526;2023-02-18T08:54:30;13.00;;;11.27;;
12038;SDS011;6080;48.818;9.526;2023-02-18T08:56:55;13.43;;;12.27;;
12038;SDS011;6080;48.818;9.526;2023-02-18T08:59:22;11.63;;;10.57;;
12038;SDS011;6080;48.818;9.526;2023-02-18T09:01:48;7.87;;;7.27;;
12038;SDS011;6080;48.818;9.526;2023-02-18T09:04:15;5.90;;;5.50;;
12038;SDS011;6080;48.818;9.526;2023-02-18T09:06:41;4.97;;;4.50;;
12038;SDS011;6080;48.818;9.526;2023-02-18T09:09:06;6.60;;;6.10;;
12038;SDS011;6080;48.818;9.526;2023-02-18T09:11:32;6.03;;;5.63;;
12038;SDS011;6080;48.818;9.526;2023-02-18T09:13:58;8.47;;;7.77;;
12038;SDS011;6080;48.818;9.526;2023-02-18T09:16:24;7.20;;;6.60;;
12038;SDS011;6080;48.818;9.526;2023-02-18T09:18:52;7.80;;;7.30;;
12038;SDS011;6080;48.818;9.526;2023-02-18T09:21:18;9.73;;;9.13;;
12038;SDS011;6080;48.818;9.526;2023-02-18T09:23:44;11.70;;;11.20;;
12038;SDS011;6080;48.818;9.526;2023-02-18T09:26:12;8.00;;;7.60;;
12038;SDS011;6080;48.818;9.526;2023-02-18T09:28:39;8.93;;;8.47;;
12038;SDS011;6080;48.818;9.526;2023-02-18T09:31:09;7.00;;;6.50;;
12038;SDS011;6080;48.818;9.526;2023-02-18T09:33:37;5.53;;;5.30;;
12038;SDS011;6080;48.818;9.526;2023-02-18T09:36:05;7.77;;;6.50;;
12038;SDS011;6080;48.818;9.526;2023-02-18T09:38:33;7.73;;;7.33;;
12038;SDS011;6080;48.818;9.526;2023-02-18T09:40:59;7.37;;;7.07;;
12038;SDS011;6080;48.818;9.526;2023-02-18T09:43:31;9.13;;;8.47;;
12038;SDS011;6080;48.818;9.526;2023-02-18T09:46:03;8.77;;;8.37;;
12038;SDS011;6080;48.818;9.526;2023-02-18T09:48:59;11.17;;;10.47;;
12038;SDS011;6080;48.818;9.526;2023-02-18T09:51:29;9.97;;;9.57;;
12038;SDS011;6080;48.818;9.526;2023-02-18T09:53:55;10.63;;;9.83;;
12038;SDS011;6080;48.818;9.526;2023-02-18T09:56:22;10.97;;;10.47;;
12038;SDS011;6080;48.818;9.526;2023-02-18T09:58:54;19.30;;;18.30;;
12038;SDS011;6080;48.818;9.526;2023-02-18T10:01:29;22.27;;;21.27;;
12038;SDS011;6080;48.818;9.526;2023-02-18T10:06:52;27.03;;;25.83;;
12038;SDS011;6080;48.818;9.526;2023-02-18T10:09:20;21.57;;;20.60;;
12038;SDS011;6080;48.818;9.526;2023-02-18T10:14:43;5.00;;;4.80;;
12038;SDS011;6080;48.818;9.526;2023-02-18T10:17:19;4.93;;;4.73;;
12038;SDS011;6080;48.818;9.526;2023-02-18T10:19:48;4.50;;;4.40;;
12038;SDS011;6080;48.818;9.526;2023-02-18T10:22:15;5.83;;;5.63;;
12038;SDS011;6080;48.818;9.526;2023-02-18T10:24:43;5.03;;;4.73;;
12038;SDS011;6080;48.818;9.526;2023-02-18T10:27:14;5.50;;;5.00;;
12038;SDS011;6080;48.818;9.526;2023-02-18T10:32:42;5.10;;;4.90;;
12038;SDS011;6080;48.818;9.526;2023-02-18T10:35:28;4.97;;;4.77;;
12038;SDS011;6080;48.818;9.526;2023-02-18T10:38:20;5.30;;;5.00;;
12038;SDS011;6080;48.818;9.526;2023-02-18T10:44:09;32.70;;;31.23;;
12038;SDS011;6080;48.818;9.526;2023-02-18T10:47:10;43.80;;;41.70;;
12038;SDS011;6080;48.818;9.526;2023-02-18T10:52:42;48.37;;;46.10;;
12038;SDS011;6080;48.818;9.526;2023-02-18T10:55:13;49.80;;;47.47;;
12038;SDS011;6080;48.818;9.526;2023-02-18T10:58:00;49.70;;;47.37;;
12038;SDS011;6080;48.818;9.526;2023-02-18T11:00:27;43.63;;;41.60;;
12038;SDS011;6080;48.818;9.526;2023-02-18T11:03:12;48.53;;;46.23;;
12038;SDS011;6080;48.818;9.526;2023-02-18T11:05:44;23.60;;;22.30;;
12038;SDS011;6080;48.818;9.526;2023-02-18T11:08:24;15.10;;;14.40;;
12038;SDS011;6080;48.818;9.526;2023-02-18T11:10:54;9.77;;;9.37;;
12038;SDS011;6080;48.818;9.526;2023-02-18T11:13:28;6.77;;;6.47;;
12038;SDS011;6080;48.818;9.526;2023-02-18T11:16:00;6.10;;;5.80;;
12038;SDS011;6080;48.818;9.526;2023-02-18T11:23:49;13.17;;;12.43;;
12038;SDS011;6080;48.818;9.526;2023-02-18T11:26:16;12.43;;;11.87;;
12038;SDS011;6080;48.818;9.526;2023-02-18T11:28:58;12.43;;;11.93;;
12038;SDS011;6080;48.818;9.526;2023-02-18T11:31:30;12.67;;;11.97;;
12038;SDS011;6080;48.818;9.526;2023-02-18T11:34:05;7.20;;;6.83;;
12038;SDS011;6080;48.818;9.526;2023-02-18T11:36:37;6.20;;;6.00;;
12038;SDS011;6080;48.818;9.526;2023-02-18T11:39:04;8.03;;;7.73;;
12038;SDS011;6080;48.818;9.526;2023-02-18T11:41:43;11.33;;;10.83;;
12038;SDS011;6080;48.818;9.526;2023-02-18T11:49:39;17.50;;;16.37;;
12038;SDS011;6080;48.818;9.526;2023-02-18T11:52:22;16.47;;;15.63;;
12038;SDS011;6080;48.818;9.526;2023-02-18T11:57:31;16.73;;;15.80;;
12038;SDS011;6080;48.818;9.526;2023-02-18T12:00:00;28.67;;;27.33;;
12038;SDS011;6080;48.818;9.526;2023-02-18T12:07:35;28.57;;;27.27;;
12038;SDS011;6080;48.818;9.526;2023-02-18T12:13:05;42.97;;;40.77;;
12038;SDS011;6080;48.818;9.526;2023-02-18T12:26:40;12.03;;;11.53;;
12038;SDS011;6080;48.818;9.526;2023-02-18T12:31:57;16.77;;;15.97;;
12038;SDS011;6080;48.818;9.526;2023-02-18T12:34:44;12.83;;;12.23;;
12038;SDS011;6080;48.818;9.526;2023-02-18T12:45:42;11.17;;;10.70;;
12038;SDS011;6080;48.818;9.526;2023-02-18T13:01:56;10.93;;;10.23;;
12038;SDS011;6080;48.818;9.526;2023-02-18T13:07:27;19.97;;;18.10;;
12038;SDS011;6080;48.818;9.526;2023-02-18T13:10:17;9.40;;;8.87;;
12038;SDS011;6080;48.818;9.526;2023-02-18T13:15:53;7.07;;;6.77;;
12038;SDS011;6080;48.818;9.526;2023-02-18T13:18:30;7.50;;;7.10;;
12038;SDS011;6080;48.818;9.526;2023-02-18T13:21:04;8.17;;;7.77;;
12038;SDS011;6080;48.818;9.526;2023-02-18T13:23:33;7.93;;;7.53;;
12038;SDS011;6080;48.818;9.526;2023-02-18T13:26:20;7.30;;;7.00;;
12038;SDS011;6080;48.818;9.526;2023-02-18T13:31:35;7.17;;;6.77;;
12038;SDS011;6080;48.818;9.526;2023-02-18T13:39:57;7.13;;;6.83;;
12038;SDS011;6080;48.818;9.526;2023-02-18T13:42:26;6.00;;;5.70;;
12038;SDS011;6080;48.818;9.526;2023-02-18T13:47:38;7.67;;;7.20;;
12038;SDS011;6080;48.818;9.526;2023-02-18T13:50:42;6.13;;;5.87;;
12038;SDS011;6080;48.818;9.526;2023-02-18T13:58:21;7.07;;;6.77;;
12038;SDS011;6080;48.818;9.526;2023-02-18T14:06:17;16.33;;;14.93;;
12038;SDS011;6080;48.818;9.526;2023-02-18T14:08:47;14.70;;;13.50;;
12038;SDS011;6080;48.818;9.526;2023-02-18T14:16:12;12.47;;;11.57;;
12038;SDS011;6080;48.818;9.526;2023-02-18T14:21:17;11.80;;;11.27;;
12038;SDS011;6080;48.818;9.526;2023-02-18T14:26:22;11.33;;;10.77;;
12038;SDS011;6080;48.818;9.526;2023-02-18T14:29:02;10.80;;;10.30;;
12038;SDS011;6080;48.818;9.526;2023-02-18T14:31:35;12.10;;;11.47;;
12038;SDS011;6080;48.818;9.526;2023-02-18T14:50:34;9.63;;;9.13;;
12038;SDS011;6080;48.818;9.526;2023-02-18T14:53:03;10.53;;;10.03;;
12038;SDS011;6080;48.818;9.526;2023-02-18T14:55:34;12.00;;;11.30;;
12038;SDS011;6080;48.818;9.526;2023-02-18T14:58:05;11.40;;;10.83;;
12038;SDS011;6080;48.818;9.526;2023-02-18T15:00:41;11.00;;;10.50;;
12038;SDS011;6080;48.818;9.526;2023-02-18T15:03:15;8.37;;;7.80;;
12038;SDS011;6080;48.818;9.526;2023-02-18T15:05:43;7.17;;;6.87;;
12038;SDS011;6080;48.818;9.526;2023-02-18T15:08:14;6.00;;;5.60;;
12038;SDS011;6080;48.818;9.526;2023-02-18T15:10:49;7.87;;;7.47;;
12038;SDS011;6080;48.818;9.526;2023-02-18T15:13:26;6.57;;;6.27;;
12038;SDS011;6080;48.818;9.526;2023-02-18T15:16:05;7.27;;;6.87;;
12038;SDS011;6080;48.818;9.526;2023-02-18T15:18:37;6.53;;;6.13;;
12038;SDS011;6080;48.818;9.526;2023-02-18T15:21:06;6.33;;;6.03;;
12038;SDS011;6080;48.818;9.526;2023-02-18T15:23:38;6.47;;;6.27;;
12038;SDS011;6080;48.818;9.526;2023-02-18T15:26:05;6.73;;;6.43;;
12038;SDS011;6080;48.818;9.526;2023-02-18T15:28:38;7.87;;;7.37;;
12038;SDS011;6080;48.818;9.526;2023-02-18T15:31:26;8.20;;;7.80;;
12038;SDS011;6080;48.818;9.526;2023-02-18T15:33:53;8.93;;;8.53;;
12038;SDS011;6080;48.818;9.526;2023-02-18T15:36:19;11.17;;;10.47;;
12038;SDS011;6080;48.818;9.526;2023-02-18T15:38:44;10.70;;;10.20;;
12038;SDS011;6080;48.818;9.526;2023-02-18T15:41:10;10.73;;;10.13;;
12038;SDS011;6080;48.818;9.526;2023-02-18T15:43:39;11.67;;;11.17;;
12038;SDS011;6080;48.818;9.526;2023-02-18T15:46:20;11.03;;;10.53;;
12038;SDS011;6080;48.818;9.526;2023-02-18T15:48:50;15.37;;;14.57;;
12038;SDS011;6080;48.818;9.526;2023-02-18T15:51:18;21.37;;;20.27;;
12038;SDS011;6080;48.818;9.526;2023-02-18T15:53:48;22.40;;;21.30;;
12038;SDS011;6080;48.818;9.526;2023-02-18T15:56:28;26.37;;;25.13;;
12038;SDS011;6080;48.818;9.526;2023-02-18T16:01:42;42.27;;;40.20;;
12038;SDS011;6080;48.818;9.526;2023-02-18T16:04:27;46.00;;;43.73;;
12038;SDS011;6080;48.818;9.526;2023-02-18T16:06:56;45.30;;;42.93;;
12038;SDS011;6080;48.818;9.526;2023-02-18T16:09:33;46.00;;;43.80;;
12038;SDS011;6080;48.818;9.526;2023-02-18T16:12:03;53.10;;;50.17;;
12038;SDS011;6080;48.818;9.526;2023-02-18T16:14:43;57.07;;;54.37;;
12038;SDS011;6080;48.818;9.526;2023-02-18T16:17:18;56.70;;;54.00;;
12038;SDS011;6080;48.818;9.526;2023-02-18T16:22:23;54.70;;;52.07;;
12038;SDS011;6080;48.818;9.526;2023-02-18T16:24:48;56.60;;;53.93;;
12038;SDS011;6080;48.818;9.526;2023-02-18T16:27:20;53.70;;;50.87;;
12038;SDS011;6080;48.818;9.526;2023-02-18T16:29:49;51.77;;;49.00;;
12038;SDS011;6080;48.818;9.526;2023-02-18T16:32:15;52.57;;;49.87;;
12038;SDS011;6080;48.818;9.526;2023-02-18T16:34:40;43.80;;;41.63;;
12038;SDS011;6080;48.818;9.526;2023-02-18T16:37:07;43.37;;;41.30;;
12038;SDS011;6080;48.818;9.526;2023-02-18T16:39:52;41.93;;;39.93;;
12038;SDS011;6080;48.818;9.526;2023-02-18T16:42:19;31.80;;;30.20;;
12038;SDS011;6080;48.818;9.526;2023-02-18T16:44:45;28.47;;;26.87;;
12038;SDS011;6080;48.818;9.526;2023-02-18T16:47:15;23.77;;;22.57;;
12038;SDS011;6080;48.818;9.526;2023-02-18T16:49:43;18.53;;;17.13;;
12038;SDS011;6080;48.818;9.526;2023-02-18T16:52:10;17.90;;;17.07;;
12038;SDS011;6080;48.818;9.526;2023-02-18T16:54:39;16.50;;;15.60;;
12038;SDS011;6080;48.818;9.526;2023-02-18T16:57:05;18.90;;;17.97;;
12038;SDS011;6080;48.818;9.526;2023-02-18T16:59:30;15.50;;;14.73;;
12038;SDS011;6080;48.818;9.526;2023-02-18T17:01:56;14.67;;;14.00;;
12038;SDS011;6080;48.818;9.526;2023-02-18T17:04:22;13.20;;;12.57;;
12038;SDS011;6080;48.818;9.526;2023-02-18T17:06:48;10.17;;;9.70;;
12038;SDS011;6080;48.818;9.526;2023-02-18T17:09:14;9.60;;;9.20;;
12038;SDS011;6080;48.818;9.526;2023-02-18T17:11:43;8.83;;;8.40;;
12038;SDS011;6080;48.818;9.526;2023-02-18T17:14:17;7.30;;;6.67;;
12038;SDS011;6080;48.818;9.526;2023-02-18T17:16:44;5.57;;;5.17;;
12038;SDS011;6080;48.818;9.526;2023-02-18T17:19:11;6.57;;;6.17;;
12038;SDS011;6080;48.818;9.526;2023-02-18T17:21:37;7.57;;;7.07;;
12038;SDS011;6080;48.818;9.526;2023-02-18T17:24:03;13.07;;;11.73;;
12038;SDS011;6080;48.818;9.526;2023-02-18T17:26:29;15.83;;;11.70;;
12038;SDS011;6080;48.818;9.526;2023-02-18T17:28:56;6.10;;;5.80;;
12038;SDS011;6080;48.818;9.526;2023-02-18T17:31:27;5.70;;;5.47;;
12038;SDS011;6080;48.818;9.526;2023-02-18T17:33:55;5.23;;;4.97;;
12038;SDS011;6080;48.818;9.526;2023-02-18T17:36:24;5.50;;;5.20;;
12038;SDS011;6080;48.818;9.526;2023-02-18T17:38:49;5.60;;;5.30;;
12038;SDS011;6080;48.818;9.526;2023-02-18T17:41:15;5.63;;;5.33;;
12038;SDS011;6080;48.818;9.526;2023-02-18T17:43:41;6.87;;;6.50;;
12038;SDS011;6080;48.818;9.526;2023-02-18T17:46:16;9.40;;;8.73;;
12038;SDS011;6080;48.818;9.526;2023-02-18T17:48:43;6.33;;;6.03;;
12038;SDS011;6080;48.818;9.526;2023-02-18T17:51:24;5.53;;;5.23;;
12038;SDS011;6080;48.818;9.526;2023-02-18T17:53:51;4.90;;;4.60;;
12038;SDS011;6080;48.818;9.526;2023-02-18T17:56:17;4.80;;;4.50;;
12038;SDS011;6080;48.818;9.526;2023-02-18T17:58:43;4.77;;;4.40;;
12038;SDS011;6080;48.818;9.526;2023-02-18T18:01:10;4.50;;;4.20;;
12038;SDS011;6080;48.818;9.526;2023-02-18T18:03:36;5.40;;;4.37;;
12038;SDS011;6080;48.818;9.526;2023-02-18T18:06:02;5.07;;;4.77;;
12038;SDS011;6080;48.818;9.526;2023-02-18T18:08:29;5.13;;;4.73;;
12038;SDS011;6080;48.818;9.526;2023-02-18T18:10:56;5.20;;;4.83;;
12038;SDS011;6080;48.818;9.526;2023-02-18T18:13:25;5.67;;;5.30;;
12038;SDS011;6080;48.818;9.526;2023-02-18T18:15:53;5.93;;;5.53;;
12038;SDS011;6080;48.818;9.526;2023-02-18T18:18:19;5.70;;;5.23;;
12038;SDS011;6080;48.818;9.526;2023-02-18T18:20:49;6.23;;;5.73;;
12038;SDS011;6080;48.818;9.526;2023-02-18T18:23:17;11.97;;;11.27;;
12038;SDS011;6080;48.818;9.526;2023-02-18T18:25:45;14.53;;;13.73;;
12038;SDS011;6080;48.818;9.526;2023-02-18T18:28:16;12.97;;;12.10;;
12038;SDS011;6080;48.818;9.526;2023-02-18T18:30:44;11.13;;;10.63;;
12038;SDS011;6080;48.818;9.526;2023-02-18T18:33:13;8.90;;;8.40;;
12038;SDS011;6080;48.818;9.526;2023-02-18T18:35:44;5.50;;;5.20;;
12038;SDS011;6080;48.818;9.526;2023-02-18T18:38:15;5.50;;;5.17;;
12038;SDS011;6080;48.818;9.526;2023-02-18T18:40:41;6.20;;;5.87;;
12038;SDS011;6080;48.818;9.526;2023-02-18T18:43:09;6.57;;;6.07;;
12038;SDS011;6080;48.818;9.526;2023-02-18T18:45:42;7.60;;;7.10;;
12038;SDS011;6080;48.818;9.526;2023-02-18T18:48:08;7.10;;;6.60;;
12038;SDS011;6080;48.818;9.526;2023-02-18T18:50:34;8.70;;;8.10;;
12038;SDS011;6080;48.818;9.526;2023-02-18T18:53:03;14.10;;;13.20;;
12038;SDS011;6080;48.818;9.526;2023-02-18T18:55:31;14.97;;;14.17;;
12038;SDS011;6080;48.818;9.526;2023-02-18T18:57:59;17.73;;;16.73;;
12038;SDS011;6080;48.818;9.526;2023-02-18T19:00:26;17.97;;;16.80;;
12038;SDS011;6080;48.818;9.526;2023-02-18T19:03:00;30.90;;;29.17;;
12038;SDS011;6080;48.818;9.526;2023-02-18T19:05:31;21.17;;;20.07;;
12038;SDS011;6080;48.818;9.526;2023-02-18T19:07:58;30.97;;;29.33;;
12038;SDS011;6080;48.818;9.526;2023-02-18T19:10:27;28.83;;;27.30;;
12038;SDS011;6080;48.818;9.526;2023-02-18T19:12:59;29.10;;;27.63;;
12038;SDS011;6080;48.818;9.526;2023-02-18T19:15:45;23.33;;;21.93;;
12038;SDS011;6080;48.818;9.526;2023-02-18T19:18:13;19.63;;;17.73;;
12038;SDS011;6080;48.818;9.526;2023-02-18T19:20:41;19.37;;;17.17;;
12038;SDS011;6080;48.818;9.526;2023-02-18T19:23:07;13.00;;;11.83;;
12038;SDS011;6080;48.818;9.526;2023-02-18T19:25:32;27.77;;;26.33;;
12038;SDS011;6080;48.818;9.526;2023-02-18T19:28:00;135.47;;;127.97;;
12038;SDS011;6080;48.818;9.526;2023-02-18T19:30:28;85.70;;;81.47;;
12038;SDS011;6080;48.818;9.526;2023-02-18T19:32:56;17.20;;;16.20;;
12038;SDS011;6080;48.818;9.526;2023-02-18T19:35:24;14.97;;;14.03;;
12038;SDS011;6080;48.818;9.526;2023-02-18T19:37:51;18.63;;;17.40;;
12038;SDS011;6080;48.818;9.526;2023-02-18T19:40:18;14.47;;;13.53;;
12038;SDS011;6080;48.818;9.526;2023-02-18T19:42:45;12.93;;;12.17;;
12038;SDS011;6080;48.818;9.526;2023-02-18T19:45:12;17.73;;;16.67;;
12038;SDS011;6080;48.818;9.526;2023-02-18T19:47:39;15.87;;;14.90;;
12038;SDS011;6080;48.818;9.526;2023-02-18T19:50:05;18.10;;;16.87;;
12038;SDS011;6080;48.818;9.526;2023-02-18T19:52:32;27.87;;;26.13;;
12038;SDS011;6080;48.818;9.526;2023-02-18T19:54:58;29.87;;;28.13;;
12038;SDS011;6080;48.818;9.526;2023-02-18T19:57:24;18.23;;;16.97;;
12038;SDS011;6080;48.818;9.526;2023-02-18T19:59:50;17.63;;;16.57;;
12038;SDS011;6080;48.818;9.526;2023-02-18T20:02:20;20.70;;;19.43;;
12038;SDS011;6080;48.818;9.526;2023-02-18T20:04:50;25.97;;;24.50;;
12038;SDS011;6080;48.818;9.526;2023-02-18T20:07:19;22.70;;;21.40;;
12038;SDS011;6080;48.818;9.526;2023-02-18T20:09:46;29.07;;;27.27;;
12038;SDS011;6080;48.818;9.526;2023-02-18T20:12:11;62.13;;;58.60;;
12038;SDS011;6080;48.818;9.526;2023-02-18T20:14:38;79.40;;;75.10;;
12038;SDS011;6080;48.818;9.526;2023-02-18T20:17:05;74.33;;;69.80;;
12038;SDS011;6080;48.818;9.526;2023-02-18T20:19:31;44.77;;;41.97;;
12038;SDS011;6080;48.818;9.526;2023-02-18T20:21:58;79.47;;;75.00;;
12038;SDS011;6080;48.818;9.526;2023-02-18T20:24:25;34.30;;;32.23;;
12038;SDS011;6080;48.818;9.526;2023-02-18T20:26:54;19.73;;;18.27;;
12038;SDS011;6080;48.818;9.526;2023-02-18T20:29:21;14.30;;;12.97;;
12038;SDS011;6080;48.818;9.526;2023-02-18T20:31:48;14.03;;;12.63;;
12038;SDS011;6080;48.818;9.526;2023-02-18T20:34:14;17.33;;;15.93;;
12038;SDS011;6080;48.818;9.526;2023-02-18T20:36:40;16.20;;;14.73;;
12038;SDS011;6080;48.818;9.526;2023-02-18T20:39:11;12.83;;;11.87;;
12038;SDS011;6080;48.818;9.526;2023-02-18T20:41:37;14.70;;;13.60;;
12038;SDS011;6080;48.818;9.526;2023-02-18T20:44:04;17.07;;;15.67;;
12038;SDS011;6080;48.818;9.526;2023-02-18T20:46:30;16.70;;;12.57;;
12038;SDS011;6080;48.818;9.526;2023-02-18T20:48:57;13.90;;;12.77;;
12038;SDS011;6080;48.818;9.526;2023-02-18T20:51:23;12.33;;;11.40;;
12038;SDS011;6080;48.818;9.526;2023-02-18T20:53:49;13.60;;;12.60;;
12038;SDS011;6080;48.818;9.526;2023-02-18T20:56:19;12.67;;;11.77;;
12038;SDS011;6080;48.818;9.526;2023-02-18T20:58:45;14.87;;;13.87;;
12038;SDS011;6080;48.818;9.526;2023-02-18T21:01:17;11.80;;;10.97;;
12038;SDS011;6080;48.818;9.526;2023-02-18T21:03:47;12.00;;;11.30;;
12038;SDS011;6080;48.818;9.526;2023-02-18T21:06:15;14.37;;;13.47;;